createdAt,value
2019-05-21T00:02:00.858Z,18.80
2019-05-21T00:04:29.624Z,18.90
2019-05-21T00:06:58.420Z,18.90
2019-05-21T00:09:27.228Z,18.90
2019-05-21T00:11:56.110Z,18.90
2019-05-21T00:14:24.940Z,18.90
2019-05-21T00:16:53.778Z,18.80
2019-05-21T00:19:22.546Z,18.80
2019-05-21T00:21:51.384Z,18.80
2019-05-21T00:24:20.233Z,18.70
2019-05-21T00:26:49.044Z,18.70
2019-05-21T00:29:54.611Z,18.70
2019-05-21T00:32:59.867Z,18.70
2019-05-21T00:36:04.994Z,18.70
2019-05-21T00:39:10.073Z,18.60
2019-05-21T00:42:02.887Z,18.60
2019-05-21T00:44:40.449Z,18.60
2019-05-21T00:47:11.155Z,18.50
2019-05-21T00:49:40.074Z,18.40
2019-05-21T00:52:09.573Z,18.40
2019-05-21T00:54:38.482Z,18.40
2019-05-21T00:57:07.335Z,18.40
2019-05-21T00:59:36.142Z,18.40
2019-05-21T01:02:04.991Z,18.40
2019-05-21T01:04:33.894Z,18.30
2019-05-21T01:07:02.868Z,18.30
2019-05-21T01:09:31.622Z,18.40
2019-05-21T01:12:00.491Z,18.30
2019-05-21T01:14:29.350Z,18.40
2019-05-21T01:16:58.179Z,18.40
2019-05-21T01:19:27.011Z,18.40
2019-05-21T01:21:55.840Z,18.40
2019-05-21T01:24:24.676Z,18.50
2019-05-21T01:26:53.534Z,18.40
2019-05-21T01:29:22.372Z,18.40
2019-05-21T01:31:51.245Z,18.40
2019-05-21T01:34:20.185Z,18.40
2019-05-21T01:36:49.036Z,18.40
2019-05-21T01:39:17.801Z,18.40
2019-05-21T01:41:46.649Z,18.40
2019-05-21T01:44:15.515Z,18.40
2019-05-21T01:46:44.353Z,18.30
2019-05-21T01:49:13.153Z,18.40
2019-05-21T01:51:41.963Z,18.40
2019-05-21T01:54:10.793Z,18.30
2019-05-21T01:56:39.613Z,18.30
2019-05-21T01:59:08.549Z,18.20
2019-05-21T02:01:37.370Z,18.20
2019-05-21T02:04:06.237Z,18.10
2019-05-21T02:06:35.049Z,18.10
2019-05-21T02:09:04.997Z,18.00
2019-05-21T02:11:33.829Z,17.90
2019-05-21T02:14:02.645Z,17.90
2019-05-21T02:16:32.681Z,17.90
2019-05-21T02:19:01.532Z,17.90
2019-05-21T02:21:30.294Z,17.90
2019-05-21T02:23:59.113Z,17.90
2019-05-21T02:26:27.942Z,18.00
2019-05-21T02:28:56.783Z,17.90
2019-05-21T02:31:25.652Z,17.90
2019-05-21T02:33:54.447Z,17.90
2019-05-21T02:36:23.643Z,17.80
2019-05-21T02:38:52.362Z,17.80
2019-05-21T02:41:21.146Z,17.80
2019-05-21T02:43:49.918Z,17.80
2019-05-21T02:46:18.753Z,17.70
2019-05-21T02:48:47.585Z,17.70
2019-05-21T02:51:16.365Z,17.70
2019-05-21T02:53:45.238Z,17.80
2019-05-21T02:56:14.037Z,17.70
2019-05-21T02:58:42.875Z,17.80
2019-05-21T03:01:16.910Z,17.80
2019-05-21T03:03:43.767Z,17.80
2019-05-21T03:06:14.788Z,17.90
2019-05-21T03:08:43.219Z,18.00
2019-05-21T03:11:12.066Z,18.10
2019-05-21T03:13:40.909Z,18.20
2019-05-21T03:16:09.794Z,18.30
2019-05-21T03:18:38.634Z,18.40
2019-05-21T03:21:07.570Z,18.50
2019-05-21T03:23:36.373Z,18.40
2019-05-21T03:26:05.203Z,18.50
2019-05-21T03:28:34.097Z,18.50
2019-05-21T03:31:02.923Z,18.60
2019-05-21T03:33:31.775Z,18.60
2019-05-21T03:36:00.597Z,18.60
2019-05-21T03:38:29.420Z,18.60
2019-05-21T03:40:58.243Z,18.60
2019-05-21T03:43:27.087Z,18.60
2019-05-21T03:45:55.919Z,18.60
2019-05-21T03:48:24.687Z,18.60
2019-05-21T03:50:53.553Z,18.60
2019-05-21T03:53:22.376Z,18.60
2019-05-21T03:55:51.232Z,18.60
2019-05-21T03:58:20.842Z,18.60
2019-05-21T04:00:49.786Z,18.70
2019-05-21T04:03:18.927Z,18.70
2019-05-21T04:05:49.153Z,18.80
2019-05-21T04:08:18.186Z,18.80
2019-05-21T04:10:47.060Z,18.90
2019-05-21T04:13:15.822Z,19.00
2019-05-21T04:16:02.688Z,19.20
2019-05-21T04:18:35.821Z,19.00
2019-05-21T04:21:04.636Z,19.00
2019-05-21T04:23:33.579Z,19.00
2019-05-21T04:26:04.013Z,18.90
2019-05-21T04:28:33.853Z,18.90
2019-05-21T04:31:04.116Z,19.00
2019-05-21T04:33:32.818Z,18.90
2019-05-21T04:36:03.063Z,18.90
2019-05-21T04:38:31.843Z,19.00
2019-05-21T04:41:03.712Z,19.10
2019-05-21T04:43:32.718Z,19.10
2019-05-21T04:46:01.526Z,19.20
2019-05-21T04:48:33.397Z,19.20
2019-05-21T04:51:02.194Z,19.30
2019-05-21T04:53:31.017Z,19.30
2019-05-21T04:55:59.777Z,19.40
2019-05-21T04:58:28.613Z,19.50
2019-05-21T05:00:57.390Z,19.40
2019-05-21T05:03:26.250Z,19.60
2019-05-21T05:05:55.105Z,19.60
2019-05-21T05:08:23.975Z,19.80
2019-05-21T05:10:52.758Z,19.80
2019-05-21T05:13:21.597Z,19.80
2019-05-21T05:15:50.278Z,19.80
2019-05-21T05:18:19.108Z,19.90
2019-05-21T05:20:47.933Z,20.00
2019-05-21T05:23:16.812Z,20.00
2019-05-21T05:25:45.627Z,20.20
2019-05-21T05:28:14.463Z,20.30
2019-05-21T05:30:43.267Z,20.40
2019-05-21T05:33:13.251Z,20.40
2019-05-21T05:35:42.080Z,20.60
2019-05-21T05:38:10.889Z,20.70
2019-05-21T05:40:39.660Z,20.70
2019-05-21T05:43:08.516Z,20.80
2019-05-21T05:45:37.925Z,20.80
2019-05-21T05:48:06.840Z,20.90
2019-05-21T05:50:39.955Z,20.90
2019-05-21T05:53:08.785Z,21.00
2019-05-21T05:55:37.597Z,21.10
2019-05-21T05:58:06.435Z,21.20
2019-05-21T06:00:35.276Z,21.20
2019-05-21T06:03:04.169Z,21.30
2019-05-21T06:05:32.925Z,21.30
2019-05-21T06:08:02.218Z,21.40
2019-05-21T06:10:31.063Z,21.40
2019-05-21T06:12:59.915Z,21.40
2019-05-21T06:15:28.748Z,21.40
2019-05-21T06:17:57.581Z,21.50
2019-05-21T06:20:26.418Z,21.50
2019-05-21T06:22:55.263Z,21.70
2019-05-21T06:25:24.201Z,21.80
2019-05-21T06:27:53.052Z,22.00
2019-05-21T06:30:21.913Z,22.20
2019-05-21T06:32:51.102Z,22.20
2019-05-21T06:35:19.977Z,22.40
2019-05-21T06:37:50.582Z,22.50
2019-05-21T06:40:20.139Z,22.70
2019-05-21T06:42:49.105Z,22.90
2019-05-21T06:45:19.178Z,23.10
2019-05-21T06:47:48.016Z,23.20
2019-05-21T06:50:16.922Z,23.20
2019-05-21T06:52:45.804Z,23.20
2019-05-21T06:55:15.353Z,23.10
2019-05-21T07:00:22.185Z,23.10
2019-05-21T07:02:50.959Z,23.10
2019-05-21T07:05:19.793Z,23.20
2019-05-21T07:07:48.640Z,23.30
2019-05-21T07:10:17.906Z,23.50
2019-05-21T07:12:46.933Z,23.70
2019-05-21T07:15:16.177Z,23.80
2019-05-21T07:17:45.563Z,23.90
2019-05-21T07:20:14.628Z,24.10
2019-05-21T07:22:43.521Z,24.30
2019-05-21T07:25:12.847Z,24.50
2019-05-21T07:27:41.683Z,24.80
2019-05-21T07:30:13.091Z,24.80
2019-05-21T07:32:41.937Z,24.80
2019-05-21T07:35:10.860Z,24.50
2019-05-21T07:37:39.743Z,24.70
2019-05-21T07:40:08.981Z,24.70
2019-05-21T07:42:37.836Z,24.60
2019-05-21T07:45:07.965Z,24.70
2019-05-21T07:47:36.782Z,25.00
2019-05-21T07:50:07.164Z,25.20
2019-05-21T07:52:35.997Z,25.10
2019-05-21T07:55:05.435Z,25.40
2019-05-21T07:57:34.314Z,25.70
2019-05-21T08:00:04.162Z,25.90
2019-05-21T08:02:32.979Z,26.00
2019-05-21T08:05:02.379Z,26.20
2019-05-21T08:07:31.510Z,26.10
2019-05-21T08:10:00.357Z,26.10
2019-05-21T08:12:38.964Z,26.20
2019-05-21T08:14:59.699Z,26.30
2019-05-21T08:17:28.600Z,26.10
2019-05-21T08:20:08.533Z,26.00
2019-05-21T08:22:27.943Z,26.00
2019-05-21T08:24:56.802Z,25.90
2019-05-21T08:27:25.630Z,26.00
2019-05-21T08:29:54.470Z,26.20
2019-05-21T08:32:23.333Z,26.10
2019-05-21T08:34:52.157Z,26.30
2019-05-21T08:37:20.991Z,26.20
2019-05-21T08:39:49.829Z,26.40
2019-05-21T08:42:18.663Z,26.50
2019-05-21T08:44:48.051Z,27.10
2019-05-21T08:47:16.900Z,27.60
2019-05-21T08:49:45.856Z,28.70
2019-05-21T08:52:14.697Z,29.00
2019-05-21T08:54:50.315Z,29.00
2019-05-21T08:57:19.213Z,28.70
2019-05-21T08:59:48.671Z,29.10
2019-05-21T09:02:17.776Z,29.60
2019-05-21T09:04:46.998Z,30.30
2019-05-21T09:07:15.940Z,30.00
2019-05-21T09:09:50.597Z,29.40
2019-05-21T09:12:15.687Z,29.00
2019-05-21T09:14:44.676Z,28.40
2019-05-21T09:17:13.429Z,27.90
2019-05-21T09:19:42.271Z,27.70
2019-05-21T09:22:11.160Z,29.00
2019-05-21T09:24:39.991Z,29.90
2019-05-21T09:27:08.743Z,30.50
2019-05-21T09:29:37.609Z,31.10
2019-05-21T09:32:06.406Z,31.50
2019-05-21T09:34:48.256Z,32.40
2019-05-21T09:37:18.400Z,33.10
2019-05-21T09:39:36.343Z,33.70
2019-05-21T09:42:05.231Z,34.30
2019-05-21T09:44:34.156Z,34.20
2019-05-21T09:47:10.309Z,33.50
2019-05-21T09:49:39.141Z,33.80
2019-05-21T09:52:07.997Z,33.60
2019-05-21T09:54:36.773Z,33.40
2019-05-21T09:57:07.424Z,32.70
2019-05-21T09:59:37.828Z,33.10
2019-05-21T10:02:11.223Z,33.00
2019-05-21T10:04:40.095Z,32.40
2019-05-21T10:07:08.980Z,33.30
2019-05-21T10:09:38.067Z,33.50
2019-05-21T10:12:08.497Z,34.00
2019-05-21T10:14:40.077Z,33.90
2019-05-21T10:17:08.889Z,34.20
2019-05-21T10:19:37.721Z,34.80
2019-05-21T10:22:06.708Z,35.10
2019-05-21T10:24:35.519Z,35.70
2019-05-21T10:27:04.555Z,36.50
2019-05-21T10:29:33.397Z,36.70
2019-05-21T10:32:02.244Z,35.80
2019-05-21T10:34:31.010Z,36.50
2019-05-21T10:37:01.267Z,37.00
2019-05-21T10:39:30.127Z,36.50
2019-05-21T10:41:58.947Z,37.50
2019-05-21T10:44:27.860Z,37.00
2019-05-21T10:46:56.887Z,37.10
2019-05-21T10:49:27.353Z,37.90
2019-05-21T10:51:56.219Z,38.40
2019-05-21T10:54:25.005Z,37.60
2019-05-21T10:56:53.932Z,38.40
2019-05-21T10:59:22.774Z,38.60
2019-05-21T11:01:53.194Z,37.10
2019-05-21T11:04:29.548Z,35.40
2019-05-21T11:06:58.597Z,34.40
2019-05-21T11:09:27.442Z,34.00
2019-05-21T11:11:56.258Z,34.20
2019-05-21T11:14:25.099Z,35.00
2019-05-21T11:16:53.945Z,35.90
2019-05-21T11:19:22.814Z,36.40
2019-05-21T11:21:54.590Z,36.80
2019-05-21T11:24:23.408Z,36.60
2019-05-21T11:26:52.948Z,36.70
2019-05-21T11:29:24.073Z,36.50
2019-05-21T11:31:57.123Z,36.80
2019-05-21T11:34:23.533Z,36.80
2019-05-21T11:36:52.413Z,36.50
2019-05-21T11:39:21.249Z,36.60
2019-05-21T11:41:51.694Z,37.70
2019-05-21T11:44:21.223Z,37.90
2019-05-21T11:46:51.103Z,37.30
2019-05-21T11:49:19.968Z,37.90
2019-05-21T11:51:48.959Z,37.30
2019-05-21T11:54:18.229Z,37.80
2019-05-21T11:56:47.166Z,38.00
2019-05-21T11:59:15.996Z,37.90
2019-05-21T12:01:44.923Z,38.30
2019-05-21T12:04:13.809Z,38.20
2019-05-21T12:06:42.580Z,38.50
2019-05-21T12:09:11.441Z,39.10
2019-05-21T12:11:40.283Z,39.70
2019-05-21T12:14:09.120Z,39.20
2019-05-21T12:16:37.921Z,38.80
2019-05-21T12:19:08.280Z,39.00
2019-05-21T12:21:37.263Z,39.00
2019-05-21T12:24:06.236Z,38.40
2019-05-21T12:26:35.445Z,38.30
2019-05-21T12:29:04.287Z,38.50
2019-05-21T12:31:33.128Z,38.10
2019-05-21T12:34:01.919Z,38.60
2019-05-21T12:36:30.733Z,39.30
2019-05-21T12:39:13.069Z,39.90
2019-05-21T12:41:30.006Z,39.20
2019-05-21T12:43:58.782Z,39.40
2019-05-21T12:46:27.654Z,39.30
2019-05-21T12:48:56.538Z,39.20
2019-05-21T12:51:33.944Z,39.40
2019-05-21T12:54:04.213Z,40.60
2019-05-21T12:56:33.008Z,40.90
2019-05-21T12:59:02.606Z,40.10
2019-05-21T13:01:31.562Z,41.00
2019-05-21T13:04:00.710Z,40.90
2019-05-21T13:06:29.617Z,40.90
2019-05-21T13:08:58.454Z,40.70
2019-05-21T13:11:28.700Z,39.10
2019-05-21T13:13:57.548Z,37.60
2019-05-21T13:16:26.413Z,37.00
2019-05-21T13:18:55.236Z,36.60
2019-05-21T13:21:24.101Z,35.20
2019-05-21T13:23:53.020Z,34.00
2019-05-21T13:26:21.942Z,33.20
2019-05-21T13:28:50.734Z,32.70
2019-05-21T13:31:19.598Z,33.40
2019-05-21T13:33:48.479Z,35.10
2019-05-21T13:36:17.349Z,36.30
2019-05-21T13:38:46.163Z,36.80
2019-05-21T13:41:15.001Z,37.50
2019-05-21T13:43:43.867Z,38.30
2019-05-21T13:46:12.724Z,38.90
2019-05-21T13:48:41.590Z,38.70
2019-05-21T13:51:10.388Z,38.40
2019-05-21T13:53:39.282Z,37.60
2019-05-21T13:56:08.035Z,36.80
2019-05-21T13:58:36.902Z,35.90
2019-05-21T14:01:06.353Z,35.10
2019-05-21T14:03:35.692Z,33.90
2019-05-21T14:06:04.819Z,33.30
2019-05-21T14:08:33.677Z,32.80
2019-05-21T14:11:02.588Z,32.50
2019-05-21T14:13:31.406Z,32.40
2019-05-21T14:16:00.252Z,32.60
2019-05-21T14:18:29.070Z,32.60
2019-05-21T14:20:57.949Z,32.70
2019-05-21T14:23:26.838Z,32.90
2019-05-21T14:25:55.675Z,33.20
2019-05-21T14:28:24.557Z,33.20
2019-05-21T14:30:53.399Z,33.20
2019-05-21T14:33:22.830Z,33.10
2019-05-21T14:35:51.674Z,32.90
2019-05-21T14:38:20.600Z,32.80
2019-05-21T14:40:49.362Z,32.70
2019-05-21T14:43:18.217Z,32.50
2019-05-21T14:45:46.979Z,32.40
2019-05-21T14:48:15.827Z,32.10
2019-05-21T14:50:44.656Z,32.10
2019-05-21T14:53:14.088Z,32.20
2019-05-21T14:55:42.929Z,32.20
2019-05-21T14:58:11.768Z,32.20
2019-05-21T15:00:40.828Z,32.30
2019-05-21T15:03:24.287Z,31.80
2019-05-21T15:05:40.470Z,31.70
2019-05-21T15:08:09.387Z,31.50
2019-05-21T15:10:47.788Z,31.40
2019-05-21T15:13:08.732Z,30.80
2019-05-21T15:15:37.563Z,30.40
2019-05-21T15:18:06.448Z,30.10
2019-05-21T15:20:36.872Z,30.30
2019-05-21T15:23:05.785Z,31.00
2019-05-21T15:25:37.283Z,31.30
2019-05-21T15:28:06.086Z,32.20
2019-05-21T15:30:35.010Z,32.60
2019-05-21T15:33:04.090Z,33.00
2019-05-21T15:35:34.383Z,32.80
2019-05-21T15:38:03.238Z,32.20
2019-05-21T15:40:32.097Z,31.20
2019-05-21T15:43:00.951Z,30.50
2019-05-21T15:45:29.798Z,30.30
2019-05-21T15:47:58.690Z,30.10
2019-05-21T15:50:27.559Z,29.60
2019-05-21T15:52:56.409Z,29.40
2019-05-21T15:55:25.259Z,29.40
2019-05-21T15:57:54.052Z,29.40
2019-05-21T16:00:24.201Z,29.30
2019-05-21T16:02:52.967Z,29.10
2019-05-21T16:05:21.814Z,28.90
2019-05-21T16:07:50.603Z,29.00
2019-05-21T16:10:19.470Z,29.10
2019-05-21T16:12:48.307Z,29.00
2019-05-21T16:15:17.263Z,29.00
2019-05-21T16:17:46.979Z,29.10
2019-05-21T16:20:17.508Z,29.00
2019-05-21T16:23:05.628Z,29.00
2019-05-21T16:25:34.470Z,29.00
2019-05-21T16:28:03.488Z,28.90
2019-05-21T16:30:32.264Z,28.70
2019-05-21T16:33:01.185Z,28.50
2019-05-21T16:35:30.520Z,28.60
2019-05-21T16:37:59.396Z,28.60
2019-05-21T16:40:29.764Z,28.60
2019-05-21T16:42:58.600Z,28.40
2019-05-21T16:45:27.458Z,28.40
2019-05-21T16:47:56.617Z,28.60
2019-05-21T16:50:25.445Z,28.70
2019-05-21T16:52:54.251Z,28.70
2019-05-21T16:55:23.188Z,28.50
2019-05-21T16:57:55.779Z,28.30
2019-05-21T17:00:23.098Z,28.10
2019-05-21T17:02:51.909Z,28.00
2019-05-21T17:05:20.927Z,27.90
2019-05-21T17:07:51.305Z,27.80
2019-05-21T17:10:20.121Z,27.70
2019-05-21T17:12:48.925Z,27.70
2019-05-21T17:15:17.972Z,27.80
2019-05-21T17:17:46.819Z,27.70
2019-05-21T17:20:16.493Z,27.80
2019-05-21T17:22:45.316Z,27.90
2019-05-21T17:25:14.645Z,27.90
2019-05-21T17:27:43.539Z,28.00
2019-05-21T17:30:12.739Z,28.00
2019-05-21T17:32:41.823Z,28.00
2019-05-21T17:35:11.122Z,28.00
2019-05-21T17:37:40.024Z,27.90
2019-05-21T17:40:09.466Z,27.70
2019-05-21T17:42:39.356Z,27.70
2019-05-21T17:45:11.198Z,27.70
2019-05-21T17:47:40.036Z,27.70
2019-05-21T17:50:09.429Z,27.70
2019-05-21T17:52:38.626Z,27.60
2019-05-21T17:55:07.654Z,27.60
2019-05-21T17:57:37.013Z,27.40
2019-05-21T18:00:07.985Z,27.40
2019-05-21T18:02:37.323Z,27.20
2019-05-21T18:05:08.756Z,27.10
2019-05-21T18:07:38.694Z,27.00
2019-05-21T18:10:08.857Z,26.90
2019-05-21T18:12:37.737Z,26.80
2019-05-21T18:15:10.420Z,26.60
2019-05-21T18:17:40.405Z,26.50
2019-05-21T18:20:10.605Z,26.30
2019-05-21T18:22:40.352Z,26.20
2019-05-21T18:25:09.513Z,26.20
2019-05-21T18:27:38.694Z,26.20
2019-05-21T18:30:09.061Z,26.10
2019-05-21T18:32:38.111Z,26.10
2019-05-21T18:35:08.578Z,26.00
2019-05-21T18:37:39.157Z,25.90
2019-05-21T18:40:09.053Z,25.70
2019-05-21T18:42:38.047Z,25.50
2019-05-21T18:45:09.001Z,25.40
2019-05-21T18:47:38.020Z,25.40
2019-05-21T18:50:08.404Z,25.40
2019-05-21T18:52:39.180Z,25.30
2019-05-21T18:55:09.557Z,25.20
2019-05-21T18:57:38.716Z,25.10
2019-05-21T19:00:08.469Z,25.10
2019-05-21T19:02:37.733Z,24.80
2019-05-21T19:05:08.389Z,24.80
2019-05-21T19:07:38.808Z,24.70
2019-05-21T19:10:09.510Z,24.60
2019-05-21T19:12:38.960Z,24.60
2019-05-21T19:15:09.311Z,24.60
2019-05-21T19:17:38.264Z,24.30
2019-05-21T19:20:08.069Z,24.00
2019-05-21T19:22:37.148Z,23.80
2019-05-21T19:25:07.825Z,23.60
2019-05-21T19:27:36.681Z,23.20
2019-05-21T19:30:09.507Z,23.20
2019-05-21T19:32:39.214Z,23.00
2019-05-21T19:35:13.578Z,23.00
2019-05-21T19:37:45.485Z,22.90
2019-05-21T19:40:14.702Z,22.70
2019-05-21T19:42:54.476Z,22.60
2019-05-21T19:45:15.989Z,22.60
2019-05-21T19:47:44.735Z,22.60
2019-05-21T19:50:13.773Z,22.60
2019-05-21T19:52:42.677Z,22.50
2019-05-21T19:55:12.038Z,22.50
2019-05-21T19:57:42.579Z,22.40
2019-05-21T20:00:12.927Z,22.50
2019-05-21T20:02:42.374Z,22.50
2019-05-21T20:05:12.338Z,22.50
2019-05-21T20:07:41.712Z,22.60
2019-05-21T20:10:11.458Z,22.70
2019-05-21T20:12:41.435Z,22.70
2019-05-21T20:15:10.959Z,22.70
2019-05-21T20:17:41.230Z,22.70
2019-05-21T20:20:11.952Z,22.60
2019-05-21T20:22:43.350Z,22.50
2019-05-21T20:25:13.656Z,22.50
2019-05-21T20:27:42.620Z,22.50
2019-05-21T20:30:14.409Z,22.40
2019-05-21T20:32:44.569Z,22.40
2019-05-21T20:35:15.620Z,22.40
2019-05-21T20:37:45.175Z,22.30
2019-05-21T20:40:15.162Z,22.20
2019-05-21T20:42:44.723Z,22.10
2019-05-21T20:45:15.863Z,22.10
2019-05-21T20:47:44.750Z,22.00
2019-05-21T20:50:15.417Z,22.00
2019-05-21T20:52:46.319Z,22.00
2019-05-21T20:55:17.375Z,21.90
2019-05-21T20:57:47.118Z,21.80
2019-05-21T21:00:23.113Z,21.70
2019-05-21T21:02:52.632Z,21.70
2019-05-21T21:05:21.876Z,21.70
2019-05-21T21:07:51.691Z,21.60
2019-05-21T21:10:21.009Z,21.60
2019-05-21T21:12:49.908Z,21.60
2019-05-21T21:15:20.877Z,21.60
2019-05-21T21:17:49.718Z,21.60
2019-05-21T21:20:18.688Z,21.60
2019-05-21T21:22:47.756Z,21.60
2019-05-21T21:25:21.317Z,21.50
2019-05-21T21:27:50.206Z,21.40
2019-05-21T21:30:19.430Z,21.30
2019-05-21T21:32:48.363Z,21.20
2019-05-21T21:35:20.302Z,21.20
2019-05-21T21:37:49.537Z,21.20
2019-05-21T21:40:19.011Z,21.10
2019-05-21T21:42:47.953Z,21.00
2019-05-21T21:45:17.208Z,20.90
2019-05-21T21:47:46.049Z,20.80
2019-05-21T21:50:15.513Z,20.80
2019-05-21T21:52:44.370Z,20.70
2019-05-21T21:55:13.489Z,20.80
2019-05-21T21:57:42.355Z,20.70
2019-05-21T22:00:33.655Z,20.70
2019-05-21T22:03:07.011Z,20.60
2019-05-21T22:05:35.841Z,20.50
2019-05-21T22:08:06.107Z,20.40
2019-05-21T22:10:37.107Z,20.40
2019-05-21T22:13:06.667Z,20.40
2019-05-21T22:15:36.029Z,20.20
2019-05-21T22:18:05.405Z,20.20
2019-05-21T22:20:34.928Z,20.10
2019-05-21T22:23:03.870Z,20.10
2019-05-21T22:25:32.725Z,20.00
2019-05-21T22:28:01.621Z,20.00
2019-05-21T22:30:31.589Z,19.90
2019-05-21T22:33:00.542Z,19.90
2019-05-21T22:35:29.382Z,19.90
2019-05-21T22:37:58.294Z,19.90
2019-05-21T22:40:27.262Z,20.00
2019-05-21T22:43:15.387Z,20.00
2019-05-21T22:45:44.417Z,20.00
2019-05-21T22:48:13.675Z,20.00
2019-05-21T22:50:42.592Z,20.10
2019-05-21T22:53:13.035Z,20.10
2019-05-21T22:55:42.031Z,20.10
2019-05-21T22:58:11.006Z,20.10
2019-05-21T23:00:40.605Z,20.10
2019-05-21T23:03:09.848Z,20.00
2019-05-21T23:05:38.720Z,20.10
2019-05-21T23:08:08.180Z,19.90
2019-05-21T23:10:37.649Z,19.90
2019-05-21T23:13:06.533Z,19.90
2019-05-21T23:15:35.409Z,19.80
2019-05-21T23:18:05.403Z,19.80
2019-05-21T23:20:36.544Z,19.80
2019-05-21T23:23:06.201Z,19.80
2019-05-21T23:25:36.680Z,19.70
2019-05-21T23:28:05.824Z,19.60
2019-05-21T23:30:34.752Z,19.50
2019-05-21T23:33:04.609Z,19.40
2019-05-21T23:35:34.982Z,19.30
2019-05-21T23:38:04.043Z,19.30
2019-05-21T23:40:33.026Z,19.30
2019-05-21T23:43:01.876Z,19.20
2019-05-21T23:45:31.143Z,19.20
2019-05-21T23:48:00.699Z,19.10
2019-05-21T23:50:30.360Z,19.00
2019-05-21T23:52:59.435Z,19.10
2019-05-21T23:55:28.268Z,19.10
2019-05-21T23:57:57.915Z,19.00
